Flight Track Log - Related Links

Times and Time Zones

All times are in EDT time to prevent confusion due to time zone crossing. See the N173VP flight status page for this flight to view local times or setup timezone preferences in your user account.

Time Position Orientation Groundspeed Altitude Reporting Facility
EDT Latitude Longitude Course Direction KTS MPH feet Rate Location/Type
Sun 12:10:38 PM 33.8500 -84.3167 274° West 170 196 2,000  Level Atlanta TRACON
Sun 12:13:07 PM 33.8603 -84.4917 274° West 221 254 7,200 2,211 Climbing Atlanta Center
Sun 12:14:07 PM 33.8514 -84.5792 263° West 242 278 9,700 2,300 Climbing Atlanta Center
Sun 12:15:07 PM 33.8322 -84.6614 254° West 249 287 11,800 1,900 Climbing Atlanta Center
Sun 12:16:07 PM 33.8131 -84.7514 256° West 270 311 13,500 1,100 Climbing Atlanta Center
Sun 12:17:07 PM 33.7936 -84.8536 257° West 303 349 14,000 750 Climbing Atlanta Center
Sun 12:18:07 PM 33.7886 -84.9736 267° West 350 403 15,000 1,250 Climbing Atlanta Center
Sun 12:19:07 PM 33.7378 -85.0681 237° Southwest 339 390 16,500 1,400 Climbing Atlanta Center
Sun 12:20:07 PM 33.6767 -85.1422 225° Southwest 339 390 17,800 1,350 Climbing Atlanta Center
Sun 12:21:07 PM 33.6050 -85.2186 222° Southwest 339 390 19,200 1,400 Climbing Atlanta Center
Sun 12:22:07 PM 33.5767 -85.3253 252° West 327 376 20,600 1,450 Climbing Atlanta Center
Sun 12:23:07 PM 33.5631 -85.4375 262° West 340 391 22,100 1,350 Climbing Atlanta Center
Sun 12:24:07 PM 33.5492 -85.5494 262° West 345 397 23,300 950 Climbing Atlanta Center
Sun 12:25:07 PM 33.5331 -85.6611 260° West 351 404 24,000 900 Climbing Atlanta Center
Sun 12:26:07 PM 33.5189 -85.7806 262° West 351 404 25,100 1,050 Climbing Atlanta Center
Sun 12:27:07 PM 33.5006 -85.9047 260° West 346 398 26,100 1,050 Climbing Atlanta Center
Sun 12:28:07 PM 33.4839 -86.0214 260° West 356 410 27,200 1,000 Climbing Atlanta Center
Sun 12:29:07 PM 33.4694 -86.1381 262° West 363 418 28,100 800 Climbing Atlanta Center
Sun 12:30:07 PM 33.4508 -86.2597 260° West 374 430 28,800 700 Climbing Atlanta Center
Sun 12:31:07 PM 33.4339 -86.3836 261° West 374 430 29,500 600 Climbing Atlanta Center
Sun 12:32:07 PM 33.4172 -86.4903 259° West 368 423 30,000 650 Climbing Atlanta Center
Sun 12:33:07 PM 33.4000 -86.6167 261° West 375 432 30,800 800 Climbing Atlanta Center
Sun 12:34:07 PM 33.3828 -86.7406 261° West 380 437 31,600 800 Climbing Atlanta Center
Sun 12:35:07 PM 33.3631 -86.8667 259° West 387 445 32,400 850 Climbing Atlanta Center
Sun 12:36:07 PM 33.3456 -86.9931 261° West 387 445 33,300 900 Climbing Atlanta Center
Sun 12:37:07 PM 33.3258 -87.1167 259° West 392 451 34,200 959 Climbing Atlanta Center
Sun 12:38:56 PM 33.2911 -87.3550 260° West 371 427 36,000 639 Climbing Memphis Center
Sun 12:39:56 PM 33.2750 -87.4650 260° West 371 427 36,000  Level Memphis Center
Sun 12:40:56 PM 33.2569 -87.5972 261° West 383 441 36,000  Level Memphis Center
Sun 12:41:56 PM 33.2350 -87.7319 259° West 407 468 36,000  Level Memphis Center
Sun 12:42:56 PM 33.2128 -87.8717 259° West 420 483 36,000  Level Memphis Center
Sun 12:43:56 PM 33.1925 -88.0114 260° West 431 496 36,000 -350 Level Memphis Center
Sun 12:44:56 PM 33.1700 -88.1533 259° West 431 496 35,300 -550 Descending Memphis Center
Sun 12:45:56 PM 33.1517 -88.3078 262° West 436 502 34,900 -950 Descending Memphis Center
Sun 12:46:56 PM 33.1308 -88.4372 259° West 436 502 33,400 -1,550 Descending Memphis Center
Sun 12:47:56 PM 33.1100 -88.5764 260° West 436 502 31,800 -1,600 Descending Memphis Center
Sun 12:48:56 PM 33.0869 -88.7158 259° West 431 496 30,200 -900 Descending Memphis Center
Sun 12:49:56 PM 33.0656 -88.8550 260° West 426 490 30,000 -100 Descending Memphis Center
Sun 12:50:56 PM 33.0444 -88.9917 260° West 426 490 30,000  Level Memphis Center
Sun 12:51:56 PM 33.0206 -89.1283 258° West 426 490 30,000 -100 Level Memphis Center
Sun 12:52:56 PM 32.9969 -89.2700 259° West 431 496 29,800 -850 Descending Memphis Center
Sun 12:53:56 PM 32.9750 -89.4064 259° West 431 496 28,300 -1,500 Descending Memphis Center
Sun 12:54:56 PM 32.9511 -89.5403 258° West 425 489 26,800 -1,500 Descending Memphis Center
Sun 12:55:56 PM 32.9289 -89.6717 259° West 420 483 25,300 -1,450 Descending Memphis Center
Sun 12:56:56 PM 32.9025 -89.8228 258° West 420 483 23,900 -1,300 Descending Memphis Center
Sun 12:57:56 PM 32.8822 -89.9517 259° West 414 476 22,700 -1,200 Descending Memphis Center
Sun 12:58:56 PM 32.8594 -90.0828 258° West 409 471 21,500 -1,150 Descending Memphis Center
Sun 12:59:56 PM 32.8367 -90.2114 258° West 409 471 20,400 -1,200 Descending Memphis Center
Sun 01:00:56 PM 32.8158 -90.3425 259° West 409 471 19,100 -1,350 Descending Memphis Center
Sun 01:01:56 PM 32.7931 -90.4686 258° West 409 471 17,700 -1,450 Descending Memphis Center
Sun 01:02:56 PM 32.7742 -90.5847 259° West 395 455 16,200 -1,600 Descending Memphis Center
Sun 01:03:56 PM 32.7528 -90.6981 257° West 388 447 14,500 -1,600 Descending Memphis Center
Sun 01:04:56 PM 32.7336 -90.8167 259° West 383 441 13,000 -750 Descending Memphis Center
Sun 01:05:56 PM 32.7125 -90.9350 258° West 373 429 13,000  Level Memphis Center
Sun 01:06:56 PM 32.6847 -91.0508 254° West 373 429 13,000  Level Memphis Center
Sun 01:08:00 PM 32.6734 -91.1715 258° West  Level FlightAware Approximate
Sun 01:15:00 PM 32.5167 -91.9401 270° West  Level FlightAware Approximate
Sun 01:16:00 PM 32.5000 -92.0333 180° South  Level FlightAware Approximate

Login

Don't have an account? Register now (free) for customized features, flight alerts, and more!